createdAt,value
2018-07-22T00:00:28.566Z,90.40
2018-07-22T00:02:57.519Z,88.70
2018-07-22T00:05:26.491Z,92.00
2018-07-22T00:07:55.517Z,90.90
2018-07-22T00:10:29.335Z,91.00
2018-07-22T00:12:59.188Z,93.40
2018-07-22T00:15:28.174Z,92.00
2018-07-22T00:17:57.145Z,94.10
2018-07-22T00:20:26.165Z,96.30
2018-07-22T00:22:55.190Z,97.30
2018-07-22T00:25:24.354Z,98.50
2018-07-22T00:27:53.312Z,99.90
2018-07-22T00:30:22.230Z,99.90
2018-07-22T00:32:51.479Z,99.90
2018-07-22T00:35:20.729Z,99.90
2018-07-22T00:37:49.747Z,99.90
2018-07-22T00:40:18.741Z,99.90
2018-07-22T00:42:47.675Z,99.90
2018-07-22T00:45:16.714Z,99.90
2018-07-22T00:47:45.787Z,99.90
2018-07-22T00:50:14.763Z,99.90
2018-07-22T00:52:43.677Z,99.90
2018-07-22T00:55:12.638Z,99.90
2018-07-22T00:57:41.572Z,99.90
2018-07-22T01:00:10.562Z,99.90
2018-07-22T01:02:39.487Z,99.90
2018-07-22T01:05:08.527Z,99.90
2018-07-22T01:07:37.506Z,99.90
2018-07-22T01:10:06.613Z,99.90
2018-07-22T01:12:35.662Z,99.90
2018-07-22T01:15:05.332Z,99.90
2018-07-22T01:17:34.289Z,99.90
2018-07-22T01:20:03.352Z,99.90
2018-07-22T01:22:32.418Z,99.90
2018-07-22T01:25:01.556Z,99.90
2018-07-22T01:27:30.534Z,99.90
2018-07-22T01:29:59.448Z,99.90
2018-07-22T01:32:28.544Z,99.90
2018-07-22T01:34:57.451Z,99.90
2018-07-22T01:39:55.008Z,99.90
2018-07-22T01:42:23.927Z,99.90
2018-07-22T01:44:52.903Z,99.90
2018-07-22T01:47:21.845Z,99.90
2018-07-22T01:49:50.795Z,99.90
2018-07-22T01:52:19.897Z,99.90
2018-07-22T01:54:48.884Z,99.90
2018-07-22T01:57:17.826Z,99.90
2018-07-22T01:59:46.791Z,99.90
2018-07-22T02:02:15.725Z,99.90
2018-07-22T02:04:44.682Z,99.90
2018-07-22T02:07:13.630Z,99.90
2018-07-22T02:09:42.542Z,99.90
2018-07-22T02:12:11.499Z,99.90
2018-07-22T02:14:41.683Z,99.90
2018-07-22T02:17:10.648Z,99.90
2018-07-22T02:19:39.615Z,99.90
2018-07-22T02:22:08.582Z,99.90
2018-07-22T02:24:37.490Z,99.90
2018-07-22T02:27:06.463Z,99.90
2018-07-22T02:29:35.478Z,99.90
2018-07-22T02:32:04.532Z,99.90
2018-07-22T02:34:33.430Z,99.90
2018-07-22T02:39:31.176Z,99.90
2018-07-22T02:42:00.184Z,99.90
2018-07-22T02:44:29.127Z,99.90
2018-07-22T02:46:58.060Z,99.90
2018-07-22T02:49:27.070Z,99.90
2018-07-22T02:51:56.051Z,99.90
2018-07-22T02:54:24.988Z,99.90
2018-07-22T02:56:53.971Z,99.90
2018-07-22T02:59:22.999Z,99.90
2018-07-22T03:01:51.913Z,99.90
2018-07-22T03:04:20.883Z,99.90
2018-07-22T03:06:49.884Z,99.90
2018-07-22T03:09:18.879Z,99.90
2018-07-22T03:11:47.818Z,99.90
2018-07-22T03:14:16.736Z,99.90
2018-07-22T03:16:45.698Z,99.90
2018-07-22T03:19:14.642Z,99.90
2018-07-22T03:21:43.607Z,99.90
2018-07-22T03:24:13.599Z,99.90
2018-07-22T03:26:42.587Z,99.90
2018-07-22T03:29:11.514Z,99.90
2018-07-22T03:31:40.486Z,99.90
2018-07-22T03:34:09.493Z,99.90
2018-07-22T03:36:38.387Z,99.90
2018-07-22T03:39:09.099Z,99.90
2018-07-22T03:41:38.063Z,99.90
2018-07-22T03:44:07.244Z,99.90
2018-07-22T03:46:36.196Z,99.90
2018-07-22T03:49:05.215Z,99.90
2018-07-22T03:51:34.187Z,99.90
2018-07-22T03:54:03.171Z,99.90
2018-07-22T03:56:32.091Z,99.90
2018-07-22T03:59:01.115Z,99.90
2018-07-22T04:01:30.042Z,97.70
2018-07-22T04:03:59.087Z,95.90
2018-07-22T04:06:27.993Z,96.30
2018-07-22T04:08:56.920Z,93.50
2018-07-22T04:13:54.466Z,92.30
2018-07-22T04:16:23.426Z,91.80
2018-07-22T04:18:53.589Z,89.40
2018-07-22T04:21:24.729Z,86.00
2018-07-22T04:23:53.777Z,83.60
2018-07-22T04:26:22.961Z,84.60
2018-07-22T04:28:52.180Z,83.70
2018-07-22T04:31:21.490Z,83.80
2018-07-22T04:33:50.549Z,83.80
2018-07-22T04:36:19.608Z,82.00
2018-07-22T04:38:48.744Z,78.90
2018-07-22T04:41:17.667Z,83.70
2018-07-22T04:43:46.627Z,81.30
2018-07-22T04:46:15.690Z,79.30
2018-07-22T04:48:44.935Z,79.60
2018-07-22T04:51:13.856Z,77.80
2018-07-22T04:53:42.797Z,79.40
2018-07-22T04:56:11.713Z,75.80
2018-07-22T04:58:40.674Z,76.60
2018-07-22T05:01:09.616Z,77.60
2018-07-22T05:03:38.585Z,75.20
2018-07-22T05:06:07.539Z,74.10
2018-07-22T05:08:36.513Z,77.40
2018-07-22T05:11:05.853Z,75.90
2018-07-22T05:13:34.798Z,71.60
2018-07-22T05:16:03.770Z,74.20
2018-07-22T05:18:32.688Z,71.20
2018-07-22T05:21:01.844Z,67.60
2018-07-22T05:25:59.307Z,65.50
2018-07-22T05:30:57.464Z,62.30
2018-07-22T05:33:26.421Z,63.70
2018-07-22T05:35:55.380Z,60.90
2018-07-22T05:38:24.394Z,58.80
2018-07-22T05:40:53.388Z,55.90
2018-07-22T05:43:22.275Z,54.10
2018-07-22T05:45:51.229Z,50.00
2018-07-22T05:48:20.272Z,46.80
2018-07-22T05:50:49.220Z,44.80
2018-07-22T05:53:18.186Z,42.80
2018-07-22T05:55:47.273Z,39.70
2018-07-22T05:58:16.253Z,37.10
2018-07-22T06:00:45.176Z,33.40
2018-07-22T06:03:14.152Z,31.00
2018-07-22T06:05:43.134Z,29.10
2018-07-22T06:08:12.110Z,27.50
2018-07-22T06:10:41.027Z,26.70
2018-07-22T06:13:10.003Z,25.20
2018-07-22T06:15:38.963Z,23.20
2018-07-22T06:18:07.893Z,23.00
2018-07-22T06:20:36.891Z,21.50
2018-07-22T06:23:06.162Z,20.70
2018-07-22T06:25:35.151Z,20.00
2018-07-22T06:28:04.159Z,19.40
2018-07-22T06:30:33.128Z,19.80
2018-07-22T06:33:02.136Z,21.00
2018-07-22T06:35:31.129Z,20.10
2018-07-22T06:38:00.076Z,18.40
2018-07-22T06:40:29.102Z,17.20
2018-07-22T06:42:58.015Z,16.90
2018-07-22T06:45:26.942Z,16.20
2018-07-22T06:47:55.930Z,15.10
2018-07-22T06:50:24.906Z,15.20
2018-07-22T06:52:53.854Z,14.20
2018-07-22T06:55:22.780Z,14.80
2018-07-22T07:02:48.970Z,11.90
2018-07-22T07:05:17.890Z,12.60
2018-07-22T07:07:46.879Z,12.80
2018-07-22T07:10:15.794Z,12.40
2018-07-22T07:12:45.164Z,12.80
2018-07-22T07:15:14.576Z,11.10
2018-07-22T07:17:43.878Z,11.00
2018-07-22T07:20:12.823Z,11.90
2018-07-22T07:22:41.765Z,10.80
2018-07-22T07:25:10.803Z,10.60
2018-07-22T07:27:39.746Z,11.90
2018-07-22T07:30:08.737Z,13.60
2018-07-22T07:32:37.701Z,11.70
2018-07-22T07:35:06.666Z,12.00
2018-07-22T07:37:35.587Z,10.50
2018-07-22T07:40:05.011Z,10.40
2018-07-22T07:42:33.936Z,11.50
2018-07-22T07:45:02.962Z,12.20
2018-07-22T07:47:32.156Z,11.60
2018-07-22T07:50:01.456Z,10.20
2018-07-22T07:52:30.676Z,9.30
2018-07-22T07:54:59.757Z,9.40
2018-07-22T07:57:29.167Z,8.80
2018-07-22T07:59:58.955Z,9.30
2018-07-22T08:02:28.115Z,8.80
2018-07-22T08:04:57.309Z,8.80
2018-07-22T08:07:26.426Z,9.70
2018-07-22T08:09:55.727Z,9.90
2018-07-22T08:12:25.031Z,9.70
2018-07-22T08:14:54.337Z,9.00
2018-07-22T08:17:23.675Z,8.30
2018-07-22T08:19:53.269Z,8.90
2018-07-22T08:22:23.444Z,8.30
2018-07-22T08:24:52.464Z,8.80
2018-07-22T08:27:21.378Z,8.80
2018-07-22T08:29:50.455Z,9.30
2018-07-22T08:32:19.344Z,9.30
2018-07-22T08:34:48.227Z,9.80
2018-07-22T08:37:31.631Z,8.30
2018-07-22T08:40:01.169Z,8.20
2018-07-22T08:42:30.223Z,8.80
2018-07-22T08:44:59.377Z,8.70
2018-07-22T08:47:28.618Z,9.00
2018-07-22T08:49:57.542Z,8.90
2018-07-22T08:52:26.539Z,8.40
2018-07-22T08:54:55.450Z,10.50
2018-07-22T08:57:24.446Z,9.70
2018-07-22T08:59:53.718Z,9.40
2018-07-22T09:02:22.733Z,8.60
2018-07-22T09:04:51.627Z,8.50
2018-07-22T09:07:20.625Z,9.30
2018-07-22T09:09:49.625Z,9.20
2018-07-22T09:12:18.602Z,10.30
2018-07-22T09:14:47.611Z,10.80
2018-07-22T09:17:16.547Z,11.00
2018-07-22T09:19:45.535Z,11.10
2018-07-22T09:22:14.580Z,10.90
2018-07-22T09:24:43.563Z,10.20
2018-07-22T09:27:12.568Z,11.10
2018-07-22T09:29:41.529Z,10.50
2018-07-22T09:32:10.605Z,10.30
2018-07-22T09:34:39.714Z,9.70
2018-07-22T09:37:08.765Z,10.80
2018-07-22T09:39:37.664Z,12.20
2018-07-22T09:42:06.857Z,15.10
2018-07-22T09:44:35.773Z,18.80
2018-07-22T09:47:04.783Z,21.90
2018-07-22T09:49:33.795Z,22.20
2018-07-22T09:52:02.822Z,20.30
2018-07-22T09:54:31.804Z,21.10
2018-07-22T09:57:00.787Z,21.70
2018-07-22T09:59:29.826Z,23.00
2018-07-22T10:01:58.810Z,21.90
2018-07-22T10:04:27.744Z,20.10
2018-07-22T10:06:56.690Z,21.60
2018-07-22T10:09:25.767Z,20.80
2018-07-22T10:11:55.911Z,21.20
2018-07-22T10:14:24.948Z,20.30
2018-07-22T10:16:53.875Z,21.10
2018-07-22T10:19:22.836Z,22.10
2018-07-22T10:21:51.776Z,21.60
2018-07-22T10:24:20.769Z,21.20
2018-07-22T10:26:49.794Z,20.20
2018-07-22T10:29:18.746Z,20.80
2018-07-22T10:31:47.713Z,22.50
2018-07-22T10:34:16.729Z,22.20
2018-07-22T10:36:45.647Z,23.80
2018-07-22T10:39:14.596Z,24.90
2018-07-22T10:41:43.559Z,24.90
2018-07-22T10:44:12.464Z,24.40
2018-07-22T10:46:41.666Z,24.80
2018-07-22T10:49:10.992Z,22.90
2018-07-22T10:51:39.961Z,23.10
2018-07-22T10:54:09.013Z,24.00
2018-07-22T10:56:37.959Z,23.80
2018-07-22T10:59:06.982Z,23.10
2018-07-22T11:01:36.679Z,23.20
2018-07-22T11:04:05.957Z,22.80
2018-07-22T11:06:35.274Z,23.30
2018-07-22T11:09:05.424Z,23.80
2018-07-22T11:11:34.378Z,25.10
2018-07-22T11:14:03.345Z,24.40
2018-07-22T11:16:32.394Z,23.70
2018-07-22T11:19:01.370Z,23.30
2018-07-22T11:21:30.453Z,24.50
2018-07-22T11:26:28.332Z,23.60
2018-07-22T11:28:57.379Z,24.20
2018-07-22T11:31:26.454Z,25.50
2018-07-22T11:33:55.502Z,25.20
2018-07-22T11:36:24.449Z,24.20
2018-07-22T11:38:53.519Z,25.00
2018-07-22T11:41:22.518Z,24.80
2018-07-22T11:43:51.458Z,25.00
2018-07-22T11:46:20.955Z,24.20
2018-07-22T11:48:49.918Z,24.20
2018-07-22T11:51:18.894Z,23.80
2018-07-22T11:53:47.848Z,23.40
2018-07-22T11:56:16.907Z,24.40
2018-07-22T11:58:46.829Z,23.50
2018-07-22T12:01:15.881Z,23.90
2018-07-22T12:03:45.577Z,25.20
2018-07-22T12:06:14.607Z,24.20
2018-07-22T12:08:43.809Z,24.80
2018-07-22T12:11:12.961Z,25.80
2018-07-22T12:13:41.961Z,24.80
2018-07-22T12:16:11.171Z,26.30
2018-07-22T12:18:40.286Z,26.80
2018-07-22T12:21:09.238Z,26.30
2018-07-22T12:23:38.418Z,25.40
2018-07-22T12:26:07.383Z,27.00
2018-07-22T12:28:36.327Z,25.70
2018-07-22T12:31:05.244Z,25.10
2018-07-22T12:33:34.239Z,25.50
2018-07-22T12:36:03.479Z,25.30
2018-07-22T12:38:32.462Z,25.40
2018-07-22T12:41:01.402Z,25.70
2018-07-22T12:43:30.499Z,25.10
2018-07-22T12:45:59.466Z,26.60
2018-07-22T12:48:28.417Z,24.50
2018-07-22T12:50:57.428Z,24.50
2018-07-22T12:53:26.367Z,24.20
2018-07-22T12:55:55.362Z,25.30
2018-07-22T12:58:24.403Z,23.50
2018-07-22T13:00:53.392Z,24.30
2018-07-22T13:03:22.341Z,24.50
2018-07-22T13:05:51.319Z,23.70
2018-07-22T13:08:20.231Z,23.60
2018-07-22T13:10:49.233Z,23.80
2018-07-22T13:13:18.159Z,24.80
2018-07-22T13:15:47.073Z,25.00
2018-07-22T13:18:16.119Z,23.30
2018-07-22T13:20:45.053Z,23.90
2018-07-22T13:23:14.040Z,23.30
2018-07-22T13:25:43.090Z,25.10
2018-07-22T13:28:12.053Z,25.20
2018-07-22T13:33:09.542Z,25.20
2018-07-22T13:35:38.504Z,25.50
2018-07-22T13:38:07.515Z,25.70
2018-07-22T13:40:36.482Z,26.80
2018-07-22T13:43:05.499Z,26.40
2018-07-22T13:45:34.435Z,27.40
2018-07-22T13:48:03.443Z,26.60
2018-07-22T13:50:32.441Z,27.50
2018-07-22T13:53:01.457Z,27.90
2018-07-22T13:55:30.414Z,28.70
2018-07-22T13:57:59.342Z,28.60
2018-07-22T14:00:28.430Z,28.30
2018-07-22T14:02:57.378Z,28.00
2018-07-22T14:05:26.381Z,28.10
2018-07-22T14:07:55.393Z,27.90
2018-07-22T14:10:24.424Z,27.70
2018-07-22T14:12:53.370Z,28.30
2018-07-22T14:15:22.379Z,28.50
2018-07-22T14:17:51.394Z,28.70
2018-07-22T14:20:20.550Z,30.10
2018-07-22T14:22:49.515Z,29.20
2018-07-22T14:25:18.482Z,29.60
2018-07-22T14:27:47.524Z,29.90
2018-07-22T14:30:16.492Z,30.50
2018-07-22T14:32:45.439Z,30.00
2018-07-22T14:35:14.535Z,31.70
2018-07-22T14:37:43.474Z,30.10
2018-07-22T14:40:12.384Z,30.80
2018-07-22T14:42:41.339Z,30.40
2018-07-22T14:45:10.273Z,29.40
2018-07-22T14:47:39.314Z,30.10
2018-07-22T14:50:08.373Z,29.50
2018-07-22T14:52:37.281Z,30.10
2018-07-22T14:55:06.295Z,29.90
2018-07-22T14:57:35.214Z,30.00
2018-07-22T15:00:04.298Z,29.70
2018-07-22T15:02:33.246Z,28.50
2018-07-22T15:05:02.216Z,28.90
2018-07-22T15:07:31.213Z,28.70
2018-07-22T15:10:00.157Z,29.30
2018-07-22T15:12:29.079Z,29.20
2018-07-22T15:14:58.099Z,28.20
2018-07-22T15:17:27.133Z,29.20
2018-07-22T15:19:56.053Z,27.70
2018-07-22T15:22:25.075Z,28.30
2018-07-22T15:24:54.051Z,29.60
2018-07-22T15:27:23.134Z,29.40
2018-07-22T15:29:52.194Z,28.90
2018-07-22T15:32:21.760Z,29.50
2018-07-22T15:34:50.856Z,28.80
2018-07-22T15:37:21.177Z,29.00
2018-07-22T15:39:50.139Z,28.80
2018-07-22T15:42:19.161Z,28.70
2018-07-22T15:44:48.130Z,28.90
2018-07-22T15:47:17.042Z,28.60
2018-07-22T15:49:46.034Z,29.00
2018-07-22T15:52:14.958Z,28.90
2018-07-22T15:54:44.019Z,29.40
2018-07-22T15:57:12.950Z,29.70
2018-07-22T15:59:41.903Z,29.70
2018-07-22T16:02:10.825Z,29.60
2018-07-22T16:04:39.832Z,29.90
2018-07-22T16:07:09.244Z,29.30
2018-07-22T16:09:39.192Z,29.90
2018-07-22T16:12:08.118Z,29.50
2018-07-22T16:14:37.115Z,28.80
2018-07-22T16:17:06.245Z,29.00
2018-07-22T16:19:35.171Z,29.20
2018-07-22T16:22:04.152Z,29.50
2018-07-22T16:24:33.212Z,29.60
2018-07-22T16:27:02.195Z,29.70
2018-07-22T16:29:31.142Z,29.70
2018-07-22T16:32:00.156Z,29.80
2018-07-22T16:34:29.069Z,29.90
2018-07-22T16:36:58.078Z,29.30
2018-07-22T16:39:26.989Z,29.10
2018-07-22T16:44:24.512Z,29.40
2018-07-22T16:46:53.531Z,29.20
2018-07-22T16:49:22.620Z,29.90
2018-07-22T16:51:51.543Z,30.30
2018-07-22T16:54:20.577Z,30.40
2018-07-22T16:56:49.485Z,30.90
2018-07-22T16:59:18.489Z,31.10
2018-07-22T17:01:47.442Z,31.30
2018-07-22T17:04:16.513Z,31.90
2018-07-22T17:06:45.474Z,31.60
2018-07-22T17:09:14.435Z,32.30
2018-07-22T17:11:43.495Z,32.80
2018-07-22T17:14:12.582Z,32.10
2018-07-22T17:16:41.561Z,31.80
2018-07-22T17:19:10.520Z,32.40
2018-07-22T17:21:39.609Z,33.40
2018-07-22T17:24:08.655Z,32.40
2018-07-22T17:26:37.693Z,32.60
2018-07-22T17:29:06.687Z,33.70
2018-07-22T17:31:35.835Z,33.50
2018-07-22T17:34:05.009Z,33.90
2018-07-22T17:36:34.109Z,34.20
2018-07-22T17:39:03.302Z,34.00
2018-07-22T17:41:32.265Z,34.70
2018-07-22T17:44:01.580Z,34.90
2018-07-22T17:46:30.788Z,34.80
2018-07-22T17:48:59.772Z,35.40
2018-07-22T17:51:28.824Z,34.30
2018-07-22T17:53:57.788Z,34.70
2018-07-22T17:56:26.940Z,34.70
2018-07-22T17:58:56.041Z,35.00
2018-07-22T18:01:25.085Z,35.40
2018-07-22T18:03:54.080Z,35.10
2018-07-22T18:06:24.024Z,35.10
2018-07-22T18:08:52.987Z,35.20
2018-07-22T18:11:22.231Z,35.20
2018-07-22T18:13:51.177Z,35.20
2018-07-22T18:16:20.167Z,35.00
2018-07-22T18:18:49.164Z,35.90
2018-07-22T18:21:18.147Z,35.80
2018-07-22T18:23:47.083Z,35.90
2018-07-22T18:26:16.131Z,36.00
2018-07-22T18:28:45.114Z,36.00
2018-07-22T18:31:14.040Z,36.50
2018-07-22T18:33:43.034Z,37.00
2018-07-22T18:36:12.022Z,37.30
2018-07-22T18:38:40.976Z,37.50
2018-07-22T18:41:09.960Z,38.10
2018-07-22T18:43:38.890Z,38.30
2018-07-22T18:46:07.855Z,38.50
2018-07-22T18:48:36.871Z,38.60
2018-07-22T18:51:05.866Z,39.10
2018-07-22T18:53:34.850Z,39.30
2018-07-22T18:56:03.771Z,39.60
2018-07-22T18:58:32.799Z,39.90
2018-07-22T19:01:01.759Z,40.20
2018-07-22T19:03:30.710Z,40.50
2018-07-22T19:05:59.640Z,40.70
2018-07-22T19:08:28.827Z,41.10
2018-07-22T19:10:58.019Z,41.30
2018-07-22T19:13:27.102Z,42.10
2018-07-22T19:15:56.067Z,42.50
2018-07-22T19:18:25.070Z,42.70
2018-07-22T19:20:54.157Z,43.00
2018-07-22T19:23:23.203Z,43.60
2018-07-22T19:25:52.330Z,44.00
2018-07-22T19:28:21.339Z,44.80
2018-07-22T19:30:50.423Z,45.40
2018-07-22T19:33:19.435Z,45.70
2018-07-22T19:35:48.670Z,45.40
2018-07-22T19:38:17.725Z,46.50
2018-07-22T19:40:46.806Z,46.30
2018-07-22T19:43:15.802Z,46.60
2018-07-22T19:45:44.782Z,46.60
2018-07-22T19:48:13.730Z,47.10
2018-07-22T19:50:43.719Z,47.60
2018-07-22T19:53:12.665Z,48.00
2018-07-22T19:55:42.012Z,49.30
2018-07-22T19:58:11.040Z,49.80
2018-07-22T20:00:40.073Z,50.00
2018-07-22T20:03:09.539Z,51.00
2018-07-22T20:05:38.544Z,50.60
2018-07-22T20:08:07.551Z,50.90
2018-07-22T20:10:36.523Z,51.40
2018-07-22T20:13:05.544Z,51.30
2018-07-22T20:15:34.727Z,51.70
2018-07-22T20:18:03.745Z,51.60
2018-07-22T20:20:32.948Z,51.60
2018-07-22T20:23:02.779Z,51.40
2018-07-22T20:25:31.890Z,50.90
2018-07-22T20:30:29.867Z,51.80
2018-07-22T20:32:58.895Z,51.80
2018-07-22T20:35:28.441Z,52.60
2018-07-22T20:37:57.393Z,52.30
2018-07-22T20:40:26.459Z,52.20
2018-07-22T20:42:55.498Z,53.70
2018-07-22T20:45:24.566Z,54.40
2018-07-22T20:47:53.652Z,55.40
2018-07-22T20:50:22.756Z,55.20
2018-07-22T20:52:51.795Z,55.50
2018-07-22T20:55:20.829Z,54.80
2018-07-22T20:57:49.851Z,56.70
2018-07-22T21:00:18.809Z,58.40
2018-07-22T21:02:47.753Z,58.40
2018-07-22T21:05:16.743Z,57.90
2018-07-22T21:07:45.794Z,58.90
2018-07-22T21:10:16.291Z,58.90
2018-07-22T21:12:57.125Z,60.10
2018-07-22T21:15:26.241Z,61.10
2018-07-22T21:17:55.214Z,61.40
2018-07-22T21:20:24.183Z,60.70
2018-07-22T21:22:53.898Z,61.10
2018-07-22T21:25:22.859Z,63.10
2018-07-22T21:27:51.765Z,62.40
2018-07-22T21:30:20.848Z,62.40
2018-07-22T21:32:49.770Z,62.80
2018-07-22T21:35:18.711Z,62.30
2018-07-22T21:37:47.645Z,62.50
2018-07-22T21:40:16.645Z,63.20
2018-07-22T21:42:45.667Z,64.10
2018-07-22T21:45:14.664Z,64.70
2018-07-22T21:47:43.585Z,66.70
2018-07-22T21:50:12.535Z,66.80
2018-07-22T21:55:10.254Z,67.20
2018-07-22T21:57:40.339Z,67.30
2018-07-22T22:00:30.695Z,68.30
2018-07-22T22:03:00.977Z,66.70
2018-07-22T22:05:30.007Z,68.80
2018-07-22T22:07:59.031Z,70.00
2018-07-22T22:10:28.155Z,71.80
2018-07-22T22:12:57.245Z,73.20
2018-07-22T22:15:27.507Z,74.00
2018-07-22T22:17:57.685Z,74.50
2018-07-22T22:20:27.268Z,75.30
2018-07-22T22:22:56.314Z,75.10
2018-07-22T22:25:25.251Z,75.80
2018-07-22T22:27:54.525Z,76.10
2018-07-22T22:30:23.489Z,76.60
2018-07-22T22:32:52.434Z,76.50
2018-07-22T22:35:21.453Z,77.60
2018-07-22T22:37:50.664Z,78.00
2018-07-22T22:40:19.666Z,78.30
2018-07-22T22:42:48.679Z,79.20
2018-07-22T22:45:17.755Z,79.40
2018-07-22T22:50:15.326Z,81.50
2018-07-22T22:52:44.306Z,82.10
2018-07-22T22:55:13.366Z,82.90
2018-07-22T22:57:52.270Z,83.30
2018-07-22T23:00:21.891Z,84.60
2018-07-22T23:02:50.887Z,85.30
2018-07-22T23:05:19.954Z,86.00
2018-07-22T23:07:48.919Z,87.50
2018-07-22T23:10:17.857Z,88.40
2018-07-22T23:12:46.923Z,89.80
2018-07-22T23:15:15.916Z,90.80
2018-07-22T23:17:44.887Z,91.00
2018-07-22T23:20:14.462Z,90.80
2018-07-22T23:22:43.472Z,90.90
2018-07-22T23:25:12.434Z,91.10
2018-07-22T23:27:41.386Z,91.60
2018-07-22T23:30:10.393Z,91.60
2018-07-22T23:32:39.338Z,91.60
2018-07-22T23:35:08.283Z,91.70
2018-07-22T23:37:37.235Z,92.00
2018-07-22T23:40:06.261Z,92.40
2018-07-22T23:42:35.229Z,92.40
2018-07-22T23:45:04.305Z,92.30
2018-07-22T23:47:33.214Z,92.50
2018-07-22T23:50:02.150Z,93.30
2018-07-22T23:52:31.075Z,93.00
2018-07-22T23:55:00.107Z,93.40
2018-07-22T23:57:29.079Z,94.00
2018-07-22T23:59:58.012Z,94.40
